Time;durP1;ratioP1;P1;durP2;ratioP2;P2;SDS_P1;SDS_P2;PMS_P1;PMS_P2;Temp;Humidity;BMP_temperature;BMP_pressure;BME280_temperature;BME280_humidity;BME280_pressure;Samples;Min_cycle;Max_cycle;Signal;HPM_P1;HPM_P2
2023/08/25 01:06:02;;;;;;;8.13;3.07;;;17.60;99.90;;;;;;6243257;22;20202;-92
2023/08/25 01:08:29;;;;;;;7.77;2.67;;;17.70;99.90;;;;;;6248337;23;20188;-92
2023/08/25 01:11:07;;;;;;;8.30;3.00;;;17.60;99.90;;;;;;6248799;23;20209;-91
2023/08/25 01:13:39;;;;;;;6.50;2.43;;;17.50;99.90;;;;;;6249318;23;20151;-89
2023/08/25 01:16:06;;;;;;;7.60;3.13;;;17.60;99.90;;;;;;6249050;23;20183;-91
2023/08/25 01:18:36;;;;;;;7.30;3.17;;;17.60;99.90;;;;;;6251009;22;20209;-92
2023/08/25 01:21:06;;;;;;;5.07;2.77;;;17.60;99.90;;;;;;6249108;23;20160;-91
2023/08/25 01:23:44;;;;;;;11.30;3.40;;;17.60;99.90;;;;;;6249430;23;20592;-91
2023/08/25 01:26:10;;;;;;;6.90;2.43;;;17.60;99.90;;;;;;6249178;23;20176;-91
2023/08/25 01:28:52;;;;;;;3.17;2.63;;;17.50;99.90;;;;;;6248221;23;20189;-91
2023/08/25 01:31:21;;;;;;;8.23;2.73;;;17.60;99.90;;;;;;6219658;23;20163;-91
2023/08/25 01:33:48;;;;;;;5.67;2.73;;;18.40;99.90;;;;;;6248566;23;20230;-90
2023/08/25 01:36:33;;;;;;;4.97;3.03;;;17.60;99.90;;;;;;6249216;23;20200;-91
2023/08/25 01:39:07;;;;;;;5.07;2.70;;;17.70;99.90;;;;;;6249812;23;20179;-91
2023/08/25 01:41:45;;;;;;;6.97;2.67;;;17.60;99.90;;;;;;6248781;23;20151;-92
2023/08/25 01:44:14;;;;;;;4.60;2.37;;;17.70;99.90;;;;;;6249536;23;20175;-89
2023/08/25 01:46:43;;;;;;;3.87;2.67;;;17.70;99.90;;;;;;6248854;23;20179;-90
2023/08/25 01:49:09;;;;;;;9.37;2.60;;;17.70;99.90;;;;;;6247915;23;20194;-91
2023/08/25 01:51:35;;;;;;;7.53;2.60;;;17.90;99.90;;;;;;6247161;23;20156;-90
2023/08/25 01:54:03;;;;;;;6.47;2.70;;;18.00;99.90;;;;;;6260408;23;20152;-92
2023/08/25 01:56:29;;;;;;;4.23;2.50;;;17.70;99.90;;;;;;6252583;23;20156;-91
2023/08/25 01:58:55;;;;;;;5.90;2.27;;;17.80;99.90;;;;;;6249058;23;20159;-91
2023/08/25 02:01:21;;;;;;;3.97;2.40;;;18.00;99.90;;;;;;6222786;23;20597;-91
2023/08/25 02:03:48;;;;;;;6.57;2.20;;;17.70;99.90;;;;;;6250842;23;20164;-90
2023/08/25 02:06:14;;;;;;;2.90;2.30;;;17.60;99.90;;;;;;6225428;23;20203;-91
2023/08/25 02:08:39;;;;;;;6.63;3.13;;;17.70;99.90;;;;;;6250897;23;20183;-93
2023/08/25 02:11:05;;;;;;;4.03;2.03;;;17.70;99.90;;;;;;6250472;23;20156;-90
2023/08/25 02:13:32;;;;;;;5.77;2.17;;;17.60;99.90;;;;;;6249998;23;20489;-91
2023/08/25 02:15:58;;;;;;;6.07;2.57;;;17.60;99.90;;;;;;6249915;23;20263;-92
2023/08/25 02:18:23;;;;;;;7.17;2.43;;;17.50;99.90;;;;;;6249197;23;20156;-90
2023/08/25 02:20:49;;;;;;;7.93;2.80;;;17.50;99.90;;;;;;6249478;23;20175;-91
2023/08/25 02:23:15;;;;;;;9.67;2.40;;;17.60;99.90;;;;;;6249670;23;20170;-90
2023/08/25 02:25:41;;;;;;;3.63;2.00;;;17.60;99.90;;;;;;6224360;23;20187;-90
2023/08/25 02:28:06;;;;;;;3.90;2.17;;;17.60;99.90;;;;;;6262632;22;20195;-91
2023/08/25 02:30:32;;;;;;;7.07;2.27;;;17.60;99.90;;;;;;6250377;23;20545;-91
2023/08/25 02:32:58;;;;;;;7.03;2.30;;;17.60;99.90;;;;;;6250365;23;20547;-91
2023/08/25 02:35:24;;;;;;;3.23;2.10;;;17.50;99.90;;;;;;6225239;23;20184;-90
2023/08/25 02:38:04;;;;;;;8.00;2.23;;;17.50;99.90;;;;;;6250092;23;20607;-91
2023/08/25 02:40:31;;;;;;;6.03;2.20;;;17.50;99.90;;;;;;6251513;23;20164;-90
2023/08/25 02:43:00;;;;;;;4.57;1.90;;;17.40;99.90;;;;;;6251943;22;20159;-92
2023/08/25 02:45:26;;;;;;;2.93;2.07;;;17.40;99.90;;;;;;6250206;23;20222;-92
2023/08/25 02:47:53;;;;;;;5.20;2.10;;;17.40;99.90;;;;;;6251003;23;20186;-92
2023/08/25 02:50:19;;;;;;;6.47;2.13;;;17.80;99.90;;;;;;6251163;23;20160;-90
2023/08/25 02:52:45;;;;;;;4.90;1.97;;;17.40;99.90;;;;;;6250227;23;20160;-91
2023/08/25 02:55:18;;;;;;;8.33;2.10;;;17.50;99.90;;;;;;6251888;22;20255;-92
2023/08/25 02:57:43;;;;;;;4.43;2.03;;;17.30;99.90;;;;;;6250941;23;20147;-88
2023/08/25 03:00:11;;;;;;;5.27;2.20;;;17.40;99.90;;;;;;6250715;23;20615;-91
2023/08/25 03:02:37;;;;;;;4.73;2.20;;;17.30;99.90;;;;;;6250484;23;20167;-92
2023/08/25 03:05:03;;;;;;;4.43;2.13;;;17.30;99.90;;;;;;6249467;23;20636;-91
2023/08/25 03:07:29;;;;;;;4.80;2.27;;;17.30;99.90;;;;;;6250664;23;20194;-91
2023/08/25 03:09:55;;;;;;;3.93;2.20;;;17.30;99.90;;;;;;6250618;23;20183;-91
2023/08/25 03:12:20;;;;;;;2.63;2.10;;;17.20;99.90;;;;;;6250434;23;20171;-92
2023/08/25 03:14:46;;;;;;;10.53;2.40;;;17.30;99.90;;;;;;6250163;23;20180;-92
2023/08/25 03:17:11;;;;;;;2.70;2.00;;;17.00;99.90;;;;;;6267597;23;20144;-91
2023/08/25 03:19:38;;;;;;;2.97;2.30;;;17.20;99.90;;;;;;6253559;23;20195;-91
2023/08/25 03:22:04;;;;;;;10.53;2.40;;;17.20;99.90;;;;;;6250131;23;20155;-91
2023/08/25 03:24:30;;;;;;;4.67;2.47;;;17.20;99.90;;;;;;6250116;23;20207;-91
2023/08/25 03:26:59;;;;;;;3.00;1.90;;;17.30;99.90;;;;;;6249758;23;20166;-91
2023/08/25 03:29:25;;;;;;;3.50;1.70;;;17.10;99.90;;;;;;6250386;23;20211;-91
2023/08/25 03:31:51;;;;;;;2.33;2.13;;;17.10;99.90;;;;;;6249770;23;20243;-91
2023/08/25 03:34:16;;;;;;;4.07;1.90;;;17.00;99.90;;;;;;6225379;23;20179;-91
2023/08/25 03:36:42;;;;;;;4.90;2.03;;;17.40;99.90;;;;;;6249262;23;20673;-91
2023/08/25 03:39:07;;;;;;;3.40;1.90;;;17.30;99.90;;;;;;6249077;23;20163;-91
2023/08/25 03:41:33;;;;;;;2.37;1.83;;;17.00;99.90;;;;;;6249264;23;20611;-93
2023/08/25 03:43:58;;;;;;;2.03;1.80;;;17.10;99.90;;;;;;6249138;23;20159;-92
2023/08/25 03:46:24;;;;;;;2.60;1.60;;;17.00;99.90;;;;;;6249580;23;20170;-92
2023/08/25 03:48:50;;;;;;;2.00;1.80;;;17.00;99.90;;;;;;6248920;23;20183;-93
2023/08/25 03:51:16;;;;;;;4.00;2.03;;;17.10;99.90;;;;;;6249318;23;20156;-91
2023/08/25 03:53:43;;;;;;;5.27;2.00;;;16.80;99.90;;;;;;6249774;23;20160;-92
2023/08/25 03:56:08;;;;;;;2.90;2.43;;;16.90;99.90;;;;;;6250221;23;20176;-91
2023/08/25 03:58:34;;;;;;;3.90;1.90;;;17.00;99.90;;;;;;6250043;23;20174;-92
2023/08/25 04:00:59;;;;;;;3.87;2.40;;;16.90;99.90;;;;;;6249007;23;20160;-91
2023/08/25 04:03:25;;;;;;;2.60;1.90;;;16.90;99.90;;;;;;6249568;23;20241;-90
2023/08/25 04:05:51;;;;;;;4.00;2.20;;;17.00;99.90;;;;;;6249119;23;20203;-91
2023/08/25 04:08:16;;;;;;;3.30;2.57;;;16.80;99.90;;;;;;6223200;23;20183;-91
2023/08/25 04:10:43;;;;;;;6.60;1.97;;;16.90;99.90;;;;;;6248458;23;20151;-91
2023/08/25 04:13:10;;;;;;;4.70;1.97;;;17.10;99.90;;;;;;6249640;23;20531;-90
2023/08/25 04:15:36;;;;;;;4.50;2.20;;;16.80;99.90;;;;;;6249954;23;20180;-90
2023/08/25 04:18:02;;;;;;;4.47;2.10;;;17.20;99.90;;;;;;6262465;23;20171;-90
2023/08/25 04:20:28;;;;;;;2.67;1.80;;;16.80;99.90;;;;;;6248698;23;20240;-90
2023/08/25 04:22:53;;;;;;;4.27;1.90;;;16.80;99.90;;;;;;6248171;23;20600;-92
2023/08/25 04:25:19;;;;;;;2.97;2.00;;;16.80;99.90;;;;;;6248027;23;20194;-91
2023/08/25 04:27:45;;;;;;;5.70;2.20;;;16.80;99.90;;;;;;6263216;22;20184;-90
2023/08/25 04:30:11;;;;;;;3.00;2.00;;;16.70;99.90;;;;;;6250406;23;20160;-92
2023/08/25 04:32:36;;;;;;;6.30;2.37;;;16.80;99.90;;;;;;6249814;23;20190;-91
2023/08/25 04:35:03;;;;;;;3.13;2.20;;;16.80;99.90;;;;;;6249316;23;20183;-91
2023/08/25 04:37:29;;;;;;;3.03;2.37;;;16.80;99.90;;;;;;6250597;22;20600;-91
2023/08/25 04:39:55;;;;;;;4.10;3.00;;;16.80;99.90;;;;;;6249098;23;20170;-91
2023/08/25 04:42:22;;;;;;;7.10;3.20;;;16.80;99.90;;;;;;6249253;23;20497;-92
2023/08/25 04:44:48;;;;;;;7.10;2.90;;;16.60;99.90;;;;;;6250127;23;20179;-92
2023/08/25 04:47:16;;;;;;;5.43;3.43;;;17.00;99.90;;;;;;6249319;23;20182;-91
2023/08/25 04:49:43;;;;;;;5.33;3.00;;;16.60;99.90;;;;;;6225182;23;20336;-92
2023/08/25 04:52:08;;;;;;;4.40;3.07;;;17.20;99.90;;;;;;6248856;23;20238;-92
2023/08/25 04:54:34;;;;;;;3.73;2.57;;;16.70;99.90;;;;;;6250108;23;20646;-91
2023/08/25 04:57:02;;;;;;;7.07;3.60;;;16.70;99.90;;;;;;6251389;22;20160;-90
2023/08/25 04:59:27;;;;;;;4.83;3.47;;;17.80;99.90;;;;;;6249255;23;20589;-92
2023/08/25 05:01:53;;;;;;;5.77;3.30;;;16.80;99.90;;;;;;6250064;23;20159;-90
2023/08/25 05:04:19;;;;;;;7.00;3.00;;;16.70;99.90;;;;;;6248926;23;20202;-92
2023/08/25 05:06:44;;;;;;;4.00;2.77;;;18.40;99.90;;;;;;6249222;23;20258;-90
2023/08/25 05:09:10;;;;;;;3.40;2.17;;;16.80;99.90;;;;;;6223569;23;20187;-93
2023/08/25 05:11:36;;;;;;;4.43;2.30;;;16.80;99.90;;;;;;6249168;23;20205;-92
2023/08/25 05:14:01;;;;;;;6.70;2.50;;;16.80;99.90;;;;;;6249887;23;20198;-91
2023/08/25 05:16:27;;;;;;;4.03;2.43;;;16.80;99.90;;;;;;6250538;23;20156;-93
2023/08/25 05:18:52;;;;;;;5.17;2.50;;;16.60;99.90;;;;;;6251334;23;20163;-94
2023/08/25 05:21:18;;;;;;;3.30;2.90;;;16.90;99.90;;;;;;6250825;23;20213;-95
2023/08/25 05:23:48;;;;;;;3.33;2.63;;;16.00;99.90;;;;;;6251713;23;20164;-91
2023/08/25 05:26:14;;;;;;;5.87;2.97;;;16.70;99.90;;;;;;6252061;23;20189;-92
2023/08/25 05:28:40;;;;;;;3.47;2.90;;;17.10;99.90;;;;;;6250835;23;20250;-93
2023/08/25 05:31:05;;;;;;;7.60;3.50;;;17.10;99.90;;;;;;6251756;23;20160;-92
2023/08/25 05:33:31;;;;;;;5.70;2.97;;;17.00;99.90;;;;;;6250976;23;20328;-92
2023/08/25 05:35:56;;;;;;;5.03;3.10;;;17.40;99.90;;;;;;6249526;23;20176;-92
2023/08/25 05:38:25;;;;;;;7.10;3.43;;;16.80;99.90;;;;;;6254812;22;20163;-92
